Terminal Aerodrome Forecast
Issued by NWS Twin Cities, MN

Home | Current Version | Previous Version | Text Only | Print | Product List | Glossary Off
Versions: 1 2 3 4 5 6 7 8 9 10 11 12 13

000
FTUS43 KMPX 202324
TAFSTC
TAF
KSTC 202324Z 2100/2124 31011G18KT P6SM VCSH SCT025 BKN040
     FM210200 33008KT P6SM SCT035 BKN050
     FM210400 31005KT P6SM SKC
     FM212100 27008KT P6SM FEW250=

USA.gov is the U.S. government's official web portal to all federal, state and local government web resources and services.